sensor_id;sensor_type;location;lat;lon;timestamp;temperature;humidity
7034;DHT22;3558;53.176;10.412;2023-12-28T03:46:28;11.70;91.10
7034;DHT22;3558;53.176;10.412;2023-12-28T03:48:53;11.80;91.10
7034;DHT22;3558;53.176;10.412;2023-12-28T03:51:19;11.80;91.10
7034;DHT22;3558;53.176;10.412;2023-12-28T03:53:45;11.80;91.10
7034;DHT22;3558;53.176;10.412;2023-12-28T03:56:24;11.80;91.10
7034;DHT22;3558;53.176;10.412;2023-12-28T03:58:50;11.90;91.20
7034;DHT22;3558;53.176;10.412;2023-12-28T04:01:21;11.80;91.20
7034;DHT22;3558;53.176;10.412;2023-12-28T04:03:47;11.80;91.20
7034;DHT22;3558;53.176;10.412;2023-12-28T04:06:13;11.80;91.20
7034;DHT22;3558;53.176;10.412;2023-12-28T04:08:40;11.90;91.20
7034;DHT22;3558;53.176;10.412;2023-12-28T04:11:05;11.80;91.20
7034;DHT22;3558;53.176;10.412;2023-12-28T04:13:31;11.80;91.20
7034;DHT22;3558;53.176;10.412;2023-12-28T04:15:56;11.80;91.50
7034;DHT22;3558;53.176;10.412;2023-12-28T04:18:22;11.90;91.30
7034;DHT22;3558;53.176;10.412;2023-12-28T04:20:47;11.80;91.30
7034;DHT22;3558;53.176;10.412;2023-12-28T04:23:14;11.90;91.30
7034;DHT22;3558;53.176;10.412;2023-12-28T04:25:39;11.90;91.30
7034;DHT22;3558;53.176;10.412;2023-12-28T04:28:06;11.90;91.30
7034;DHT22;3558;53.176;10.412;2023-12-28T04:30:31;11.90;91.30
7034;DHT22;3558;53.176;10.412;2023-12-28T04:32:57;11.90;91.30
7034;DHT22;3558;53.176;10.412;2023-12-28T04:35:22;11.90;91.30
7034;DHT22;3558;53.176;10.412;2023-12-28T04:37:48;11.90;91.30
7034;DHT22;3558;53.176;10.412;2023-12-28T04:40:13;11.90;91.30
7034;DHT22;3558;53.176;10.412;2023-12-28T04:42:40;11.90;91.30
7034;DHT22;3558;53.176;10.412;2023-12-28T04:45:07;11.90;91.30
7034;DHT22;3558;53.176;10.412;2023-12-28T04:47:32;11.90;91.40
7034;DHT22;3558;53.176;10.412;2023-12-28T04:49:58;11.90;91.40
7034;DHT22;3558;53.176;10.412;2023-12-28T04:52:23;11.90;91.40
7034;DHT22;3558;53.176;10.412;2023-12-28T04:54:49;11.90;91.40
7034;DHT22;3558;53.176;10.412;2023-12-28T04:57:14;11.90;91.40
7034;DHT22;3558;53.176;10.412;2023-12-28T04:59:40;11.90;91.40
7034;DHT22;3558;53.176;10.412;2023-12-28T05:02:06;11.90;91.40
7034;DHT22;3558;53.176;10.412;2023-12-28T05:04:32;11.90;91.40
7034;DHT22;3558;53.176;10.412;2023-12-28T05:06:58;11.90;91.40
7034;DHT22;3558;53.176;10.412;2023-12-28T05:09:23;11.80;91.40
7034;DHT22;3558;53.176;10.412;2023-12-28T05:11:48;11.90;91.50
7034;DHT22;3558;53.176;10.412;2023-12-28T05:14:14;11.90;91.50
7034;DHT22;3558;53.176;10.412;2023-12-28T05:16:40;11.90;91.40
7034;DHT22;3558;53.176;10.412;2023-12-28T05:19:05;11.90;91.50
7034;DHT22;3558;53.176;10.412;2023-12-28T05:21:31;11.90;91.50
7034;DHT22;3558;53.176;10.412;2023-12-28T05:23:56;11.90;91.50
7034;DHT22;3558;53.176;10.412;2023-12-28T05:26:21;11.90;91.50
7034;DHT22;3558;53.176;10.412;2023-12-28T05:28:48;11.90;91.50
7034;DHT22;3558;53.176;10.412;2023-12-28T05:31:14;11.90;91.50
7034;DHT22;3558;53.176;10.412;2023-12-28T05:33:39;11.90;91.50
7034;DHT22;3558;53.176;10.412;2023-12-28T05:36:05;11.90;91.50
7034;DHT22;3558;53.176;10.412;2023-12-28T05:38:31;11.90;91.50
7034;DHT22;3558;53.176;10.412;2023-12-28T05:40:57;11.90;91.50
7034;DHT22;3558;53.176;10.412;2023-12-28T05:43:22;11.90;91.50
7034;DHT22;3558;53.176;10.412;2023-12-28T05:45:47;11.90;91.50
7034;DHT22;3558;53.176;10.412;2023-12-28T05:48:13;11.90;91.50
7034;DHT22;3558;53.176;10.412;2023-12-28T05:50:38;11.90;91.50
7034;DHT22;3558;53.176;10.412;2023-12-28T05:53:05;11.90;91.60
7034;DHT22;3558;53.176;10.412;2023-12-28T05:55:30;11.90;91.60
7034;DHT22;3558;53.176;10.412;2023-12-28T05:57:56;12.00;91.60
7034;DHT22;3558;53.176;10.412;2023-12-28T06:00:21;12.00;91.60
7034;DHT22;3558;53.176;10.412;2023-12-28T06:02:47;12.00;91.60
7034;DHT22;3558;53.176;10.412;2023-12-28T06:05:17;12.00;91.60
7034;DHT22;3558;53.176;10.412;2023-12-28T06:07:42;12.00;91.60
7034;DHT22;3558;53.176;10.412;2023-12-28T06:10:08;12.00;91.60
7034;DHT22;3558;53.176;10.412;2023-12-28T06:12:34;12.00;91.60
7034;DHT22;3558;53.176;10.412;2023-12-28T06:14:59;12.00;91.60
7034;DHT22;3558;53.176;10.412;2023-12-28T06:17:25;12.00;91.60
7034;DHT22;3558;53.176;10.412;2023-12-28T06:19:50;12.00;91.60
7034;DHT22;3558;53.176;10.412;2023-12-28T06:22:16;12.10;91.70
7034;DHT22;3558;53.176;10.412;2023-12-28T06:24:41;12.00;91.70
7034;DHT22;3558;53.176;10.412;2023-12-28T06:27:07;12.00;91.70
7034;DHT22;3558;53.176;10.412;2023-12-28T06:29:32;12.00;91.70
7034;DHT22;3558;53.176;10.412;2023-12-28T06:31:58;12.00;91.70
7034;DHT22;3558;53.176;10.412;2023-12-28T06:34:23;12.10;91.70
7034;DHT22;3558;53.176;10.412;2023-12-28T06:36:49;12.10;91.70
7034;DHT22;3558;53.176;10.412;2023-12-28T06:39:14;12.10;91.70
7034;DHT22;3558;53.176;10.412;2023-12-28T06:41:40;12.10;91.70
7034;DHT22;3558;53.176;10.412;2023-12-28T06:44:05;12.10;91.70
7034;DHT22;3558;53.176;10.412;2023-12-28T06:46:30;12.10;91.70
7034;DHT22;3558;53.176;10.412;2023-12-28T06:48:56;12.10;91.70
7034;DHT22;3558;53.176;10.412;2023-12-28T06:51:24;12.10;91.70
7034;DHT22;3558;53.176;10.412;2023-12-28T06:53:49;12.10;91.70
7034;DHT22;3558;53.176;10.412;2023-12-28T06:56:15;12.10;91.70
7034;DHT22;3558;53.176;10.412;2023-12-28T06:58:41;12.10;91.70
7034;DHT22;3558;53.176;10.412;2023-12-28T07:01:06;12.10;91.70
7034;DHT22;3558;53.176;10.412;2023-12-28T07:03:32;12.10;91.70
7034;DHT22;3558;53.176;10.412;2023-12-28T07:05:59;12.10;91.70
7034;DHT22;3558;53.176;10.412;2023-12-28T07:08:24;12.10;91.70
7034;DHT22;3558;53.176;10.412;2023-12-28T07:10:50;12.10;91.80
7034;DHT22;3558;53.176;10.412;2023-12-28T07:13:15;12.10;91.80
7034;DHT22;3558;53.176;10.412;2023-12-28T07:15:41;12.10;91.80
7034;DHT22;3558;53.176;10.412;2023-12-28T07:18:06;12.10;91.80
7034;DHT22;3558;53.176;10.412;2023-12-28T07:20:32;12.20;91.80
7034;DHT22;3558;53.176;10.412;2023-12-28T07:22:57;12.20;91.80
7034;DHT22;3558;53.176;10.412;2023-12-28T07:25:23;12.20;91.70
7034;DHT22;3558;53.176;10.412;2023-12-28T07:27:48;12.10;91.80
7034;DHT22;3558;53.176;10.412;2023-12-28T07:30:14;12.10;91.80
7034;DHT22;3558;53.176;10.412;2023-12-28T07:32:42;12.10;91.70
7034;DHT22;3558;53.176;10.412;2023-12-28T07:35:07;12.20;91.80
7034;DHT22;3558;53.176;10.412;2023-12-28T07:37:33;12.20;91.80
7034;DHT22;3558;53.176;10.412;2023-12-28T07:39:58;12.20;91.80
7034;DHT22;3558;53.176;10.412;2023-12-28T07:42:24;12.20;91.80
7034;DHT22;3558;53.176;10.412;2023-12-28T07:44:49;12.20;91.80
7034;DHT22;3558;53.176;10.412;2023-12-28T07:47:15;12.20;91.80
7034;DHT22;3558;53.176;10.412;2023-12-28T07:49:40;12.20;91.80
7034;DHT22;3558;53.176;10.412;2023-12-28T07:52:06;12.30;91.80
7034;DHT22;3558;53.176;10.412;2023-12-28T07:54:31;12.30;91.80
7034;DHT22;3558;53.176;10.412;2023-12-28T07:56:58;12.30;91.80
7034;DHT22;3558;53.176;10.412;2023-12-28T07:59:24;12.30;91.80
7034;DHT22;3558;53.176;10.412;2023-12-28T08:01:49;12.30;91.80
7034;DHT22;3558;53.176;10.412;2023-12-28T08:04:15;12.30;91.80
7034;DHT22;3558;53.176;10.412;2023-12-28T08:06:40;12.40;91.90
7034;DHT22;3558;53.176;10.412;2023-12-28T08:09:06;12.30;91.80
7034;DHT22;3558;53.176;10.412;2023-12-28T08:11:31;12.40;91.90
7034;DHT22;3558;53.176;10.412;2023-12-28T08:13:57;12.40;91.90
7034;DHT22;3558;53.176;10.412;2023-12-28T08:16:22;12.40;91.90
7034;DHT22;3558;53.176;10.412;2023-12-28T08:18:48;12.40;92.10
7034;DHT22;3558;53.176;10.412;2023-12-28T08:21:13;12.40;91.90
7034;DHT22;3558;53.176;10.412;2023-12-28T08:23:39;12.40;91.90
7034;DHT22;3558;53.176;10.412;2023-12-28T08:26:05;12.40;91.90
7034;DHT22;3558;53.176;10.412;2023-12-28T08:28:31;12.40;91.90
7034;DHT22;3558;53.176;10.412;2023-12-28T08:30:56;12.40;91.90
7034;DHT22;3558;53.176;10.412;2023-12-28T08:33:22;12.40;91.90
7034;DHT22;3558;53.176;10.412;2023-12-28T08:35:48;12.40;91.90
7034;DHT22;3558;53.176;10.412;2023-12-28T08:38:13;12.50;91.90
7034;DHT22;3558;53.176;10.412;2023-12-28T08:40:39;12.50;91.90
7034;DHT22;3558;53.176;10.412;2023-12-28T08:43:04;12.50;91.90
7034;DHT22;3558;53.176;10.412;2023-12-28T08:45:30;12.50;91.90
7034;DHT22;3558;53.176;10.412;2023-12-28T08:47:55;12.50;91.90
7034;DHT22;3558;53.176;10.412;2023-12-28T08:50:21;12.50;91.90
7034;DHT22;3558;53.176;10.412;2023-12-28T08:52:46;12.50;92.00
7034;DHT22;3558;53.176;10.412;2023-12-28T08:55:12;12.60;92.00
7034;DHT22;3558;53.176;10.412;2023-12-28T08:57:37;12.60;91.90
7034;DHT22;3558;53.176;10.412;2023-12-28T09:00:07;12.60;91.90
7034;DHT22;3558;53.176;10.412;2023-12-28T09:02:33;12.60;91.90
7034;DHT22;3558;53.176;10.412;2023-12-28T09:04:59;12.70;91.90
7034;DHT22;3558;53.176;10.412;2023-12-28T09:07:24;12.70;92.00
7034;DHT22;3558;53.176;10.412;2023-12-28T09:09:50;12.70;91.90
7034;DHT22;3558;53.176;10.412;2023-12-28T09:12:15;12.70;91.90
7034;DHT22;3558;53.176;10.412;2023-12-28T09:14:41;12.80;92.00
7034;DHT22;3558;53.176;10.412;2023-12-28T09:17:06;12.70;92.00
7034;DHT22;3558;53.176;10.412;2023-12-28T09:19:32;12.80;92.00
7034;DHT22;3558;53.176;10.412;2023-12-28T09:21:57;12.80;92.00
7034;DHT22;3558;53.176;10.412;2023-12-28T09:24:23;12.80;92.00
7034;DHT22;3558;53.176;10.412;2023-12-28T09:26:48;12.80;92.00
7034;DHT22;3558;53.176;10.412;2023-12-28T09:29:14;12.80;91.90
7034;DHT22;3558;53.176;10.412;2023-12-28T09:31:39;12.90;91.90
7034;DHT22;3558;53.176;10.412;2023-12-28T09:34:05;12.90;91.90
7034;DHT22;3558;53.176;10.412;2023-12-28T09:36:31;12.90;92.00
7034;DHT22;3558;53.176;10.412;2023-12-28T09:38:56;12.90;92.00
7034;DHT22;3558;53.176;10.412;2023-12-28T09:41:26;13.00;92.00
7034;DHT22;3558;53.176;10.412;2023-12-28T09:44:00;13.00;91.90
7034;DHT22;3558;53.176;10.412;2023-12-28T09:46:29;13.00;91.90
7034;DHT22;3558;53.176;10.412;2023-12-28T09:48:55;13.00;92.00
7034;DHT22;3558;53.176;10.412;2023-12-28T09:51:21;13.00;92.00
7034;DHT22;3558;53.176;10.412;2023-12-28T09:53:47;13.00;92.00
7034;DHT22;3558;53.176;10.412;2023-12-28T09:56:13;13.10;91.90
7034;DHT22;3558;53.176;10.412;2023-12-28T09:58:42;13.10;91.90
7034;DHT22;3558;53.176;10.412;2023-12-28T10:01:10;13.10;91.90
7034;DHT22;3558;53.176;10.412;2023-12-28T10:03:36;13.20;92.00
7034;DHT22;3558;53.176;10.412;2023-12-28T10:06:01;13.10;91.90
7034;DHT22;3558;53.176;10.412;2023-12-28T10:08:27;13.20;91.90
7034;DHT22;3558;53.176;10.412;2023-12-28T10:10:53;13.20;91.90
7034;DHT22;3558;53.176;10.412;2023-12-28T10:13:20;13.20;91.90
7034;DHT22;3558;53.176;10.412;2023-12-28T10:15:46;13.30;91.90
7034;DHT22;3558;53.176;10.412;2023-12-28T10:18:12;13.30;91.90
7034;DHT22;3558;53.176;10.412;2023-12-28T10:20:38;13.30;91.80
7034;DHT22;3558;53.176;10.412;2023-12-28T10:23:04;13.40;91.80
7034;DHT22;3558;53.176;10.412;2023-12-28T10:25:31;13.40;91.90
7034;DHT22;3558;53.176;10.412;2023-12-28T10:27:57;13.40;91.80
7034;DHT22;3558;53.176;10.412;2023-12-28T10:30:23;13.40;91.90
7034;DHT22;3558;53.176;10.412;2023-12-28T10:32:49;13.40;91.90
7034;DHT22;3558;53.176;10.412;2023-12-28T10:35:14;13.40;91.90
7034;DHT22;3558;53.176;10.412;2023-12-28T10:37:41;13.50;91.90
7034;DHT22;3558;53.176;10.412;2023-12-28T10:40:13;13.50;91.90
7034;DHT22;3558;53.176;10.412;2023-12-28T10:43:02;13.50;91.90
7034;DHT22;3558;53.176;10.412;2023-12-28T10:45:31;13.60;92.00
7034;DHT22;3558;53.176;10.412;2023-12-28T10:48:07;13.60;92.00
7034;DHT22;3558;53.176;10.412;2023-12-28T10:50:46;13.60;92.10
7034;DHT22;3558;53.176;10.412;2023-12-28T10:53:30;13.70;92.20
7034;DHT22;3558;53.176;10.412;2023-12-28T10:56:28;13.70;92.30
7034;DHT22;3558;53.176;10.412;2023-12-28T10:59:19;13.70;92.40
7034;DHT22;3558;53.176;10.412;2023-12-28T11:01:51;13.80;92.50
7034;DHT22;3558;53.176;10.412;2023-12-28T11:04:44;13.80;92.50
7034;DHT22;3558;53.176;10.412;2023-12-28T11:07:14;13.80;92.60
7034;DHT22;3558;53.176;10.412;2023-12-28T11:09:42;13.90;92.60
7034;DHT22;3558;53.176;10.412;2023-12-28T11:12:08;13.90;92.60
7034;DHT22;3558;53.176;10.412;2023-12-28T11:14:39;14.00;92.60
7034;DHT22;3558;53.176;10.412;2023-12-28T11:17:05;14.00;92.60
7034;DHT22;3558;53.176;10.412;2023-12-28T11:19:32;14.00;92.60
7034;DHT22;3558;53.176;10.412;2023-12-28T11:21:58;14.00;92.70
7034;DHT22;3558;53.176;10.412;2023-12-28T11:24:26;14.10;92.80
7034;DHT22;3558;53.176;10.412;2023-12-28T11:26:53;14.10;92.80
7034;DHT22;3558;53.176;10.412;2023-12-28T11:29:20;14.20;92.80
7034;DHT22;3558;53.176;10.412;2023-12-28T11:31:54;14.20;92.80
7034;DHT22;3558;53.176;10.412;2023-12-28T11:34:27;14.20;92.80
7034;DHT22;3558;53.176;10.412;2023-12-28T11:36:55;14.20;92.70
7034;DHT22;3558;53.176;10.412;2023-12-28T11:39:32;14.20;92.70
7034;DHT22;3558;53.176;10.412;2023-12-28T11:42:05;14.30;92.70
7034;DHT22;3558;53.176;10.412;2023-12-28T11:44:36;14.30;92.70
7034;DHT22;3558;53.176;10.412;2023-12-28T11:47:12;14.30;92.60
7034;DHT22;3558;53.176;10.412;2023-12-28T11:49:38;14.30;92.70
7034;DHT22;3558;53.176;10.412;2023-12-28T11:52:08;14.40;92.60
7034;DHT22;3558;53.176;10.412;2023-12-28T11:54:34;14.40;92.60
7034;DHT22;3558;53.176;10.412;2023-12-28T11:57:00;14.40;92.60
7034;DHT22;3558;53.176;10.412;2023-12-28T11:59:25;14.40;92.60
7034;DHT22;3558;53.176;10.412;2023-12-28T12:01:52;14.40;92.60
7034;DHT22;3558;53.176;10.412;2023-12-28T12:04:21;14.40;92.60
7034;DHT22;3558;53.176;10.412;2023-12-28T12:06:47;14.40;92.50
7034;DHT22;3558;53.176;10.412;2023-12-28T12:09:14;14.40;92.40
7034;DHT22;3558;53.176;10.412;2023-12-28T12:11:40;14.50;92.40
7034;DHT22;3558;53.176;10.412;2023-12-28T12:14:11;14.50;92.40
7034;DHT22;3558;53.176;10.412;2023-12-28T12:16:37;14.50;92.30
7034;DHT22;3558;53.176;10.412;2023-12-28T12:19:04;14.50;92.30
7034;DHT22;3558;53.176;10.412;2023-12-28T12:21:30;14.40;92.20
7034;DHT22;3558;53.176;10.412;2023-12-28T12:23:55;14.50;92.10
7034;DHT22;3558;53.176;10.412;2023-12-28T12:26:21;14.50;92.00
7034;DHT22;3558;53.176;10.412;2023-12-28T12:28:47;14.50;92.10
7034;DHT22;3558;53.176;10.412;2023-12-28T12:31:14;14.50;92.00
7034;DHT22;3558;53.176;10.412;2023-12-28T12:33:40;14.50;92.00
7034;DHT22;3558;53.176;10.412;2023-12-28T12:36:07;14.50;91.90
7034;DHT22;3558;53.176;10.412;2023-12-28T12:38:33;14.50;91.80
7034;DHT22;3558;53.176;10.412;2023-12-28T12:40:59;14.50;91.80
7034;DHT22;3558;53.176;10.412;2023-12-28T12:43:25;14.60;91.80
7034;DHT22;3558;53.176;10.412;2023-12-28T12:45:52;14.60;91.80
7034;DHT22;3558;53.176;10.412;2023-12-28T12:48:18;14.60;91.80
7034;DHT22;3558;53.176;10.412;2023-12-28T12:50:44;14.60;91.70
7034;DHT22;3558;53.176;10.412;2023-12-28T12:53:09;14.60;91.70
7034;DHT22;3558;53.176;10.412;2023-12-28T12:55:36;14.60;91.80
7034;DHT22;3558;53.176;10.412;2023-12-28T12:58:05;14.60;91.80
7034;DHT22;3558;53.176;10.412;2023-12-28T13:00:30;14.60;91.80
7034;DHT22;3558;53.176;10.412;2023-12-28T13:02:59;14.60;91.80
7034;DHT22;3558;53.176;10.412;2023-12-28T13:05:24;14.60;91.90
7034;DHT22;3558;53.176;10.412;2023-12-28T13:07:51;14.60;91.80
7034;DHT22;3558;53.176;10.412;2023-12-28T13:10:16;14.60;91.80
7034;DHT22;3558;53.176;10.412;2023-12-28T13:12:42;14.60;91.80
7034;DHT22;3558;53.176;10.412;2023-12-28T13:15:07;14.60;91.80
7034;DHT22;3558;53.176;10.412;2023-12-28T13:17:35;14.60;91.80
7034;DHT22;3558;53.176;10.412;2023-12-28T13:20:01;14.60;91.80
7034;DHT22;3558;53.176;10.412;2023-12-28T13:22:26;14.60;91.80
7034;DHT22;3558;53.176;10.412;2023-12-28T13:24:52;14.60;91.80
7034;DHT22;3558;53.176;10.412;2023-12-28T13:27:17;14.60;91.80
7034;DHT22;3558;53.176;10.412;2023-12-28T13:29:43;14.60;91.80
7034;DHT22;3558;53.176;10.412;2023-12-28T13:32:09;14.60;91.80
7034;DHT22;3558;53.176;10.412;2023-12-28T13:34:34;14.50;92.00
7034;DHT22;3558;53.176;10.412;2023-12-28T13:37:00;14.60;91.80
7034;DHT22;3558;53.176;10.412;2023-12-28T13:39:28;14.60;91.90
7034;DHT22;3558;53.176;10.412;2023-12-28T13:41:54;14.60;91.80
7034;DHT22;3558;53.176;10.412;2023-12-28T13:44:19;14.60;91.90
7034;DHT22;3558;53.176;10.412;2023-12-28T13:46:45;14.60;91.90
7034;DHT22;3558;53.176;10.412;2023-12-28T13:49:11;14.50;91.90
7034;DHT22;3558;53.176;10.412;2023-12-28T13:51:36;14.60;91.90
7034;DHT22;3558;53.176;10.412;2023-12-28T13:54:02;14.50;91.90
7034;DHT22;3558;53.176;10.412;2023-12-28T13:56:27;14.50;91.90
7034;DHT22;3558;53.176;10.412;2023-12-28T13:58:54;14.50;91.80
7034;DHT22;3558;53.176;10.412;2023-12-28T14:01:20;14.50;91.80
7034;DHT22;3558;53.176;10.412;2023-12-28T14:03:45;14.50;91.80
7034;DHT22;3558;53.176;10.412;2023-12-28T14:06:13;14.50;91.80
7034;DHT22;3558;53.176;10.412;2023-12-28T14:08:38;14.60;91.80
7034;DHT22;3558;53.176;10.412;2023-12-28T14:11:04;14.60;91.70
7034;DHT22;3558;53.176;10.412;2023-12-28T14:13:29;14.50;91.70
7034;DHT22;3558;53.176;10.412;2023-12-28T14:15:56;14.50;91.70
7034;DHT22;3558;53.176;10.412;2023-12-28T14:18:22;14.50;91.70
7034;DHT22;3558;53.176;10.412;2023-12-28T14:20:47;14.50;91.70
7034;DHT22;3558;53.176;10.412;2023-12-28T14:23:13;14.50;91.70
7034;DHT22;3558;53.176;10.412;2023-12-28T14:25:39;14.50;91.70
7034;DHT22;3558;53.176;10.412;2023-12-28T14:28:05;14.50;91.90
7034;DHT22;3558;53.176;10.412;2023-12-28T14:30:31;14.50;91.70
7034;DHT22;3558;53.176;10.412;2023-12-28T14:32:56;14.50;91.70
7034;DHT22;3558;53.176;10.412;2023-12-28T14:35:22;14.50;91.60
7034;DHT22;3558;53.176;10.412;2023-12-28T14:37:48;14.50;91.70
7034;DHT22;3558;53.176;10.412;2023-12-28T14:40:14;14.50;91.60
7034;DHT22;3558;53.176;10.412;2023-12-28T14:42:40;14.60;91.60
7034;DHT22;3558;53.176;10.412;2023-12-28T14:45:06;14.50;91.60
7034;DHT22;3558;53.176;10.412;2023-12-28T14:47:31;14.50;91.60
7034;DHT22;3558;53.176;10.412;2023-12-28T14:49:57;14.50;91.60
7034;DHT22;3558;53.176;10.412;2023-12-28T14:52:23;14.50;91.50
7034;DHT22;3558;53.176;10.412;2023-12-28T14:54:51;14.50;91.50
7034;DHT22;3558;53.176;10.412;2023-12-28T14:57:19;14.50;91.50
7034;DHT22;3558;53.176;10.412;2023-12-28T14:59:45;14.50;91.50
7034;DHT22;3558;53.176;10.412;2023-12-28T15:02:10;14.50;91.50
7034;DHT22;3558;53.176;10.412;2023-12-28T15:04:36;14.50;91.50
7034;DHT22;3558;53.176;10.412;2023-12-28T15:07:03;14.50;91.50
7034;DHT22;3558;53.176;10.412;2023-12-28T15:09:29;14.50;91.50
7034;DHT22;3558;53.176;10.412;2023-12-28T15:11:55;14.40;91.40
7034;DHT22;3558;53.176;10.412;2023-12-28T15:14:21;14.40;91.40
7034;DHT22;3558;53.176;10.412;2023-12-28T15:16:47;14.40;91.40
7034;DHT22;3558;53.176;10.412;2023-12-28T15:19:13;14.40;91.40
7034;DHT22;3558;53.176;10.412;2023-12-28T15:21:38;14.50;91.40
7034;DHT22;3558;53.176;10.412;2023-12-28T15:24:04;14.40;91.40
7034;DHT22;3558;53.176;10.412;2023-12-28T15:26:30;14.40;91.40
7034;DHT22;3558;53.176;10.412;2023-12-28T15:28:55;14.40;91.30
7034;DHT22;3558;53.176;10.412;2023-12-28T15:31:21;14.40;91.30
7034;DHT22;3558;53.176;10.412;2023-12-28T15:33:46;14.40;91.30
7034;DHT22;3558;53.176;10.412;2023-12-28T15:36:12;14.40;91.40
7034;DHT22;3558;53.176;10.412;2023-12-28T15:38:38;14.40;91.40
7034;DHT22;3558;53.176;10.412;2023-12-28T15:41:03;14.40;91.40
7034;DHT22;3558;53.176;10.412;2023-12-28T15:43:29;14.40;91.40
7034;DHT22;3558;53.176;10.412;2023-12-28T15:45:55;14.40;91.40
7034;DHT22;3558;53.176;10.412;2023-12-28T15:48:20;14.40;91.40
7034;DHT22;3558;53.176;10.412;2023-12-28T15:50:46;14.30;91.30
7034;DHT22;3558;53.176;10.412;2023-12-28T15:53:11;14.40;91.30
7034;DHT22;3558;53.176;10.412;2023-12-28T15:55:36;14.30;91.30
7034;DHT22;3558;53.176;10.412;2023-12-28T15:58:04;14.30;91.30
7034;DHT22;3558;53.176;10.412;2023-12-28T16:00:30;14.30;91.30
7034;DHT22;3558;53.176;10.412;2023-12-28T16:02:55;14.30;91.50
7034;DHT22;3558;53.176;10.412;2023-12-28T16:05:21;14.30;91.30
7034;DHT22;3558;53.176;10.412;2023-12-28T16:07:47;14.30;91.30
7034;DHT22;3558;53.176;10.412;2023-12-28T16:10:12;14.30;91.30
7034;DHT22;3558;53.176;10.412;2023-12-28T16:12:38;14.20;91.20
7034;DHT22;3558;53.176;10.412;2023-12-28T16:15:04;14.20;91.20
7034;DHT22;3558;53.176;10.412;2023-12-28T16:17:30;14.20;91.00
7034;DHT22;3558;53.176;10.412;2023-12-28T16:19:55;14.30;91.10
7034;DHT22;3558;53.176;10.412;2023-12-28T16:22:21;14.20;91.00
7034;DHT22;3558;53.176;10.412;2023-12-28T16:24:47;14.20;91.00
7034;DHT22;3558;53.176;10.412;2023-12-28T16:27:12;14.20;91.10
7034;DHT22;3558;53.176;10.412;2023-12-28T16:29:38;14.20;91.10
7034;DHT22;3558;53.176;10.412;2023-12-28T16:32:03;14.20;91.20
7034;DHT22;3558;53.176;10.412;2023-12-28T16:34:32;14.20;91.20
7034;DHT22;3558;53.176;10.412;2023-12-28T16:36:58;14.20;91.20
7034;DHT22;3558;53.176;10.412;2023-12-28T16:39:23;14.20;91.10
7034;DHT22;3558;53.176;10.412;2023-12-28T16:41:49;14.20;91.10
7034;DHT22;3558;53.176;10.412;2023-12-28T16:44:14;14.20;91.10
7034;DHT22;3558;53.176;10.412;2023-12-28T16:46:45;14.20;91.10
7034;DHT22;3558;53.176;10.412;2023-12-28T16:49:11;14.20;91.00
7034;DHT22;3558;53.176;10.412;2023-12-28T16:51:37;14.20;91.10
7034;DHT22;3558;53.176;10.412;2023-12-28T16:54:02;14.40;91.10
7034;DHT22;3558;53.176;10.412;2023-12-28T16:56:29;14.20;91.10
7034;DHT22;3558;53.176;10.412;2023-12-28T16:58:54;14.20;91.10
7034;DHT22;3558;53.176;10.412;2023-12-28T17:01:20;14.20;91.10
7034;DHT22;3558;53.176;10.412;2023-12-28T17:03:45;14.20;91.10
7034;DHT22;3558;53.176;10.412;2023-12-28T17:06:11;14.20;91.10
7034;DHT22;3558;53.176;10.412;2023-12-28T17:08:36;14.20;91.10
7034;DHT22;3558;53.176;10.412;2023-12-28T17:11:02;14.20;91.20
7034;DHT22;3558;53.176;10.412;2023-12-28T17:13:28;14.10;91.10
7034;DHT22;3558;53.176;10.412;2023-12-28T17:15:54;14.10;91.10
7034;DHT22;3558;53.176;10.412;2023-12-28T17:18:19;14.10;91.00
7034;DHT22;3558;53.176;10.412;2023-12-28T17:20:45;14.10;91.00
7034;DHT22;3558;53.176;10.412;2023-12-28T17:23:22;14.10;91.00
7034;DHT22;3558;53.176;10.412;2023-12-28T17:26:03;14.10;90.90
7034;DHT22;3558;53.176;10.412;2023-12-28T17:28:36;14.10;91.00
7034;DHT22;3558;53.176;10.412;2023-12-28T17:31:05;14.20;91.00
7034;DHT22;3558;53.176;10.412;2023-12-28T17:33:32;14.10;91.00
7034;DHT22;3558;53.176;10.412;2023-12-28T17:35:58;14.10;91.00
7034;DHT22;3558;53.176;10.412;2023-12-28T17:38:24;14.10;91.00
7034;DHT22;3558;53.176;10.412;2023-12-28T17:40:50;14.10;91.00
7034;DHT22;3558;53.176;10.412;2023-12-28T17:43:23;14.10;91.00
7034;DHT22;3558;53.176;10.412;2023-12-28T17:46:06;14.10;91.00
7034;DHT22;3558;53.176;10.412;2023-12-28T17:48:33;14.10;91.10
7034;DHT22;3558;53.176;10.412;2023-12-28T17:51:03;14.10;91.00
7034;DHT22;3558;53.176;10.412;2023-12-28T17:53:29;14.10;91.00
7034;DHT22;3558;53.176;10.412;2023-12-28T17:55:56;14.10;91.00
7034;DHT22;3558;53.176;10.412;2023-12-28T17:58:22;14.10;90.90
7034;DHT22;3558;53.176;10.412;2023-12-28T18:00:47;14.10;90.90
7034;DHT22;3558;53.176;10.412;2023-12-28T18:03:13;14.10;90.90
7034;DHT22;3558;53.176;10.412;2023-12-28T18:05:39;14.10;90.90
7034;DHT22;3558;53.176;10.412;2023-12-28T18:08:05;14.10;90.90
7034;DHT22;3558;53.176;10.412;2023-12-28T18:10:31;14.10;90.90
7034;DHT22;3558;53.176;10.412;2023-12-28T18:12:56;14.10;90.90
7034;DHT22;3558;53.176;10.412;2023-12-28T18:15:22;14.10;90.90
7034;DHT22;3558;53.176;10.412;2023-12-28T18:17:47;14.10;90.90
7034;DHT22;3558;53.176;10.412;2023-12-28T18:20:14;14.10;90.90
7034;DHT22;3558;53.176;10.412;2023-12-28T18:22:39;14.10;90.90
7034;DHT22;3558;53.176;10.412;2023-12-28T18:25:05;14.10;90.90
7034;DHT22;3558;53.176;10.412;2023-12-28T18:27:31;14.10;90.90
7034;DHT22;3558;53.176;10.412;2023-12-28T18:29:56;14.10;90.90
7034;DHT22;3558;53.176;10.412;2023-12-28T18:32:22;14.10;90.90
7034;DHT22;3558;53.176;10.412;2023-12-28T18:34:47;14.10;90.90
7034;DHT22;3558;53.176;10.412;2023-12-28T18:37:15;14.10;90.90
7034;DHT22;3558;53.176;10.412;2023-12-28T18:39:41;14.10;90.90
7034;DHT22;3558;53.176;10.412;2023-12-28T18:42:07;14.10;90.90
7034;DHT22;3558;53.176;10.412;2023-12-28T18:44:32;14.10;90.80
7034;DHT22;3558;53.176;10.412;2023-12-28T18:47:03;14.10;90.80
7034;DHT22;3558;53.176;10.412;2023-12-28T18:49:30;14.10;90.80
7034;DHT22;3558;53.176;10.412;2023-12-28T18:51:55;14.10;90.80
7034;DHT22;3558;53.176;10.412;2023-12-28T18:54:21;14.10;90.80
7034;DHT22;3558;53.176;10.412;2023-12-28T18:56:46;14.10;90.70
7034;DHT22;3558;53.176;10.412;2023-12-28T18:59:12;14.10;90.60
7034;DHT22;3558;53.176;10.412;2023-12-28T19:01:37;14.00;90.60
7034;DHT22;3558;53.176;10.412;2023-12-28T19:04:03;14.00;90.70
7034;DHT22;3558;53.176;10.412;2023-12-28T19:06:28;14.00;90.60
7034;DHT22;3558;53.176;10.412;2023-12-28T19:08:54;14.00;90.60
7034;DHT22;3558;53.176;10.412;2023-12-28T19:11:19;14.00;90.60
7034;DHT22;3558;53.176;10.412;2023-12-28T19:13:45;14.00;90.50
7034;DHT22;3558;53.176;10.412;2023-12-28T19:16:17;14.00;90.60
7034;DHT22;3558;53.176;10.412;2023-12-28T19:18:47;14.00;90.60
7034;DHT22;3558;53.176;10.412;2023-12-28T19:21:14;14.00;90.60
7034;DHT22;3558;53.176;10.412;2023-12-28T19:23:39;14.00;90.60
7034;DHT22;3558;53.176;10.412;2023-12-28T19:26:05;14.00;90.90